createdAt,value
2023-02-18T00:01:23.202Z,2.13
2023-02-18T00:03:50.641Z,3.20
2023-02-18T00:06:25.044Z,1.38
2023-02-18T00:08:52.249Z,1.92
2023-02-18T00:11:20.837Z,1.50
2023-02-18T00:13:56.299Z,1.77
2023-02-18T00:16:23.833Z,7.07
2023-02-18T00:18:50.963Z,2.25
2023-02-18T00:21:17.745Z,2.42
2023-02-18T00:23:44.581Z,2.53
2023-02-18T00:26:14.545Z,5.10
2023-02-18T00:28:41.716Z,2.47
2023-02-18T00:31:11.166Z,2.70
2023-02-18T00:33:38.254Z,1.33
2023-02-18T00:36:07.411Z,1.85
2023-02-18T00:38:34.541Z,3.15
2023-02-18T00:41:01.644Z,1.50
2023-02-18T00:43:28.514Z,1.08
2023-02-18T00:45:55.623Z,1.95
2023-02-18T00:48:22.532Z,2.08
2023-02-18T00:50:49.269Z,1.60
2023-02-18T00:53:15.996Z,2.00
2023-02-18T00:55:44.584Z,2.80
2023-02-18T00:58:11.589Z,1.15
2023-02-18T01:00:38.562Z,0.98
2023-02-18T01:03:09.144Z,7.80
2023-02-18T01:05:36.809Z,1.02
2023-02-18T01:08:03.826Z,1.27
2023-02-18T01:10:30.794Z,2.80
2023-02-18T01:12:57.641Z,1.38
2023-02-18T01:15:24.762Z,2.55
2023-02-18T01:17:51.853Z,3.20
2023-02-18T01:20:19.678Z,1.40
2023-02-18T01:22:46.481Z,3.13
2023-02-18T01:25:13.275Z,4.55
2023-02-18T01:27:40.093Z,4.78
2023-02-18T01:30:08.462Z,0.90
2023-02-18T01:32:35.222Z,0.98
2023-02-18T01:35:03.616Z,1.75
2023-02-18T01:37:30.302Z,1.20
2023-02-18T01:39:57.160Z,0.50
2023-02-18T01:42:27.154Z,0.50
2023-02-18T01:44:54.672Z,2.15
2023-02-18T01:47:21.375Z,0.55
2023-02-18T01:49:52.883Z,0.52
2023-02-18T01:52:24.233Z,0.65
2023-02-18T01:54:56.096Z,1.92
2023-02-18T01:57:29.190Z,0.50
2023-02-18T01:59:59.965Z,1.48
2023-02-18T02:02:28.989Z,0.30
2023-02-18T02:04:57.698Z,0.55
2023-02-18T02:07:27.019Z,0.57
2023-02-18T02:09:55.698Z,1.40
2023-02-18T02:12:35.086Z,1.35
2023-02-18T02:15:04.774Z,0.88
2023-02-18T02:17:56.074Z,0.40
2023-02-18T02:20:47.516Z,1.30
2023-02-18T02:23:20.457Z,1.15
2023-02-18T02:26:05.470Z,0.35
2023-02-18T02:29:00.521Z,0.60
2023-02-18T02:32:04.423Z,1.77
2023-02-18T02:34:40.388Z,0.68
2023-02-18T02:37:10.394Z,1.77
2023-02-18T02:39:53.028Z,0.98
2023-02-18T02:42:36.384Z,5.10
2023-02-18T02:45:38.536Z,7.95
2023-02-18T02:48:14.108Z,4.38
2023-02-18T02:50:48.987Z,3.88
2023-02-18T02:53:36.442Z,0.20
2023-02-18T02:56:03.794Z,1.08
2023-02-18T02:58:30.640Z,1.23
2023-02-18T03:01:18.529Z,4.43
2023-02-18T03:04:13.617Z,2.10
2023-02-18T03:07:04.746Z,2.15
2023-02-18T03:09:46.598Z,2.38
2023-02-18T03:12:43.752Z,1.90
2023-02-18T03:15:47.718Z,3.90
2023-02-18T03:18:14.400Z,4.32
2023-02-18T03:20:53.104Z,1.35
2023-02-18T03:23:27.125Z,4.57
2023-02-18T03:25:56.534Z,1.23
2023-02-18T03:28:26.020Z,4.95
2023-02-18T03:31:10.867Z,0.40
2023-02-18T03:33:43.064Z,3.90
2023-02-18T03:36:10.506Z,1.40
2023-02-18T03:38:44.238Z,2.05
2023-02-18T03:41:11.045Z,2.30
2023-02-18T03:43:37.726Z,1.85
2023-02-18T03:46:04.704Z,3.40
2023-02-18T03:48:31.526Z,2.13
2023-02-18T03:50:58.218Z,2.85
2023-02-18T03:53:24.928Z,1.85
2023-02-18T03:55:51.632Z,0.70
2023-02-18T03:58:18.402Z,2.83
2023-02-18T04:00:45.169Z,1.13
2023-02-18T04:03:11.872Z,7.20
2023-02-18T04:05:38.520Z,2.05
2023-02-18T04:08:05.727Z,1.92
2023-02-18T04:10:32.466Z,1.38
2023-02-18T04:13:00.099Z,1.38
2023-02-18T04:15:26.972Z,2.22
2023-02-18T04:17:53.677Z,4.18
2023-02-18T04:20:20.408Z,3.58
2023-02-18T04:22:47.143Z,0.57
2023-02-18T04:25:13.827Z,2.40
2023-02-18T04:27:40.522Z,1.00
2023-02-18T04:30:08.082Z,2.83
2023-02-18T04:32:34.879Z,5.82
2023-02-18T04:35:01.564Z,0.82
2023-02-18T04:37:28.309Z,6.18
2023-02-18T04:39:55.007Z,1.52
2023-02-18T04:42:21.761Z,1.17
2023-02-18T04:44:48.447Z,0.30
2023-02-18T04:47:15.457Z,5.70
2023-02-18T04:49:42.152Z,9.27
2023-02-18T04:52:08.842Z,1.13
2023-02-18T04:54:35.624Z,0.85
2023-02-18T04:57:02.296Z,1.02
2023-02-18T04:59:29.081Z,1.23
2023-02-18T05:01:55.866Z,2.53
2023-02-18T05:04:22.720Z,0.75
2023-02-18T05:06:49.577Z,1.65
2023-02-18T05:09:16.708Z,6.15
2023-02-18T05:11:43.922Z,2.47
2023-02-18T05:14:11.838Z,3.80
2023-02-18T05:16:38.617Z,2.75
2023-02-18T05:19:05.982Z,3.05
2023-02-18T05:21:33.132Z,1.27
2023-02-18T05:23:59.908Z,1.77
2023-02-18T05:26:26.608Z,3.30
2023-02-18T05:28:53.347Z,5.53
2023-02-18T05:31:20.088Z,0.73
2023-02-18T05:33:46.906Z,1.38
2023-02-18T05:36:13.641Z,1.88
2023-02-18T05:38:40.301Z,0.65
2023-02-18T05:41:07.002Z,1.75
2023-02-18T05:43:53.756Z,2.75
2023-02-18T05:46:20.548Z,3.53
2023-02-18T05:48:47.491Z,1.42
2023-02-18T05:51:14.522Z,5.78
2023-02-18T05:53:41.280Z,1.00
2023-02-18T05:56:08.326Z,3.38
2023-02-18T05:58:35.221Z,1.90
2023-02-18T06:01:02.075Z,1.70
2023-02-18T06:03:28.764Z,0.50
2023-02-18T06:05:55.628Z,0.75
2023-02-18T06:08:22.521Z,0.70
2023-02-18T06:10:49.298Z,1.20
2023-02-18T06:13:16.076Z,1.05
2023-02-18T06:15:43.055Z,0.70
2023-02-18T06:18:09.794Z,1.23
2023-02-18T06:20:36.501Z,3.88
2023-02-18T06:23:03.208Z,1.77
2023-02-18T06:25:29.908Z,0.77
2023-02-18T06:27:56.779Z,4.03
2023-02-18T06:30:24.594Z,2.38
2023-02-18T06:32:51.426Z,2.03
2023-02-18T06:35:18.227Z,2.33
2023-02-18T06:37:45.836Z,5.15
2023-02-18T06:40:12.822Z,2.42
2023-02-18T06:42:39.800Z,1.27
2023-02-18T06:45:06.797Z,1.75
2023-02-18T06:47:34.523Z,1.13
2023-02-18T06:50:01.478Z,1.90
2023-02-18T06:52:30.520Z,3.95
2023-02-18T06:54:57.188Z,0.60
2023-02-18T06:57:23.954Z,1.35
2023-02-18T06:59:50.759Z,1.20
2023-02-18T07:02:17.461Z,0.82
2023-02-18T07:04:45.659Z,1.70
2023-02-18T07:07:12.341Z,1.20
2023-02-18T07:09:39.026Z,1.75
2023-02-18T07:12:06.152Z,0.60
2023-02-18T07:14:32.861Z,1.88
2023-02-18T07:16:59.558Z,0.32
2023-02-18T07:19:26.326Z,1.35
2023-02-18T07:21:54.371Z,0.55
2023-02-18T07:24:21.138Z,3.20
2023-02-18T07:26:47.853Z,2.97
2023-02-18T07:29:14.581Z,4.20
2023-02-18T07:31:41.404Z,0.75
2023-02-18T07:34:09.085Z,0.20
2023-02-18T07:36:35.855Z,3.03
2023-02-18T07:39:02.558Z,3.38
2023-02-18T07:41:29.390Z,2.88
2023-02-18T07:43:56.058Z,4.38
2023-02-18T07:46:23.053Z,5.00
2023-02-18T07:48:49.820Z,0.85
2023-02-18T07:51:16.514Z,4.78
2023-02-18T07:53:43.427Z,3.30
2023-02-18T07:56:10.459Z,2.58
2023-02-18T07:58:38.622Z,2.58
2023-02-18T08:01:10.167Z,1.95
2023-02-18T08:03:40.792Z,3.67
2023-02-18T08:06:08.702Z,0.70
2023-02-18T08:08:37.228Z,0.75
2023-02-18T08:11:17.092Z,0.55
2023-02-18T08:13:47.085Z,1.23
2023-02-18T08:16:15.043Z,1.45
2023-02-18T08:18:41.919Z,3.03
2023-02-18T08:21:08.763Z,1.70
2023-02-18T08:23:35.456Z,2.63
2023-02-18T08:26:02.291Z,0.95
2023-02-18T08:28:28.992Z,2.70
2023-02-18T08:30:55.856Z,1.42
2023-02-18T08:33:23.264Z,0.63
2023-02-18T08:35:52.103Z,1.17
2023-02-18T08:38:19.744Z,1.52
2023-02-18T08:40:46.664Z,1.38
2023-02-18T08:43:14.041Z,2.85
2023-02-18T08:45:41.119Z,2.72
2023-02-18T08:48:16.546Z,1.23
2023-02-18T08:50:48.115Z,5.32
2023-02-18T08:53:15.053Z,3.15
2023-02-18T08:55:42.524Z,1.45
2023-02-18T08:58:09.930Z,0.93
2023-02-18T09:00:37.752Z,1.50
2023-02-18T09:03:05.338Z,0.98
2023-02-18T09:05:32.150Z,0.32
2023-02-18T09:08:00.991Z,0.98
2023-02-18T09:10:27.832Z,1.17
2023-02-18T09:12:54.584Z,2.60
2023-02-18T09:15:21.412Z,1.52
2023-02-18T09:17:48.098Z,2.92
2023-02-18T09:20:15.256Z,0.85
2023-02-18T09:22:42.052Z,0.38
2023-02-18T09:25:08.932Z,1.52
2023-02-18T09:27:35.641Z,1.00
2023-02-18T09:30:02.641Z,1.25
2023-02-18T09:32:34.659Z,2.60
2023-02-18T09:35:02.651Z,0.65
2023-02-18T09:37:29.650Z,2.00
2023-02-18T09:39:56.487Z,1.08
2023-02-18T09:42:31.216Z,2.38
2023-02-18T09:45:01.969Z,0.30
2023-02-18T09:47:41.133Z,3.53
2023-02-18T09:50:09.380Z,1.60
2023-02-18T09:52:38.467Z,3.35
2023-02-18T09:55:38.845Z,0.52
2023-02-18T09:58:11.298Z,2.22
2023-02-18T10:00:41.300Z,1.65
2023-02-18T10:03:15.942Z,2.58
2023-02-18T10:06:02.964Z,1.73
2023-02-18T10:08:42.329Z,1.25
2023-02-18T10:11:21.115Z,1.00
2023-02-18T10:13:47.890Z,0.47
2023-02-18T10:16:19.770Z,0.82
2023-02-18T10:18:50.698Z,2.78
2023-02-18T10:21:33.035Z,1.95
2023-02-18T10:24:00.966Z,1.23
2023-02-18T10:26:30.329Z,0.90
2023-02-18T10:28:58.227Z,2.28
2023-02-18T10:31:37.346Z,0.85
2023-02-18T10:34:07.233Z,0.45
2023-02-18T10:36:42.016Z,1.13
2023-02-18T10:39:32.827Z,0.63
2023-02-18T10:42:28.465Z,3.55
2023-02-18T10:45:04.143Z,1.75
2023-02-18T10:47:51.393Z,2.30
2023-02-18T10:50:31.857Z,2.65
2023-02-18T10:53:02.844Z,1.95
2023-02-18T10:55:44.880Z,2.92
2023-02-18T10:58:31.357Z,2.80
2023-02-18T11:00:58.861Z,0.85
2023-02-18T11:03:38.454Z,2.22
2023-02-18T11:06:06.375Z,2.08
2023-02-18T11:08:43.421Z,1.63
2023-02-18T11:11:22.957Z,0.47
2023-02-18T11:14:15.198Z,0.30
2023-02-18T11:16:44.822Z,1.13
2023-02-18T11:19:38.092Z,1.45
2023-02-18T11:22:16.890Z,1.55
2023-02-18T11:24:48.205Z,2.03
2023-02-18T11:27:28.596Z,0.52
2023-02-18T11:30:01.986Z,0.30
2023-02-18T11:32:30.376Z,4.05
2023-02-18T11:34:57.265Z,0.57
2023-02-18T11:37:24.904Z,0.75
2023-02-18T11:39:54.694Z,1.45
2023-02-18T11:42:24.921Z,3.33
2023-02-18T11:45:00.030Z,0.32
2023-02-18T11:47:35.049Z,2.22
2023-02-18T11:50:17.510Z,1.08
2023-02-18T11:52:47.356Z,0.77
2023-02-18T11:55:27.232Z,1.00
2023-02-18T11:58:03.530Z,1.27
2023-02-18T12:00:45.070Z,2.47
2023-02-18T12:03:35.799Z,2.15
2023-02-18T12:06:06.179Z,4.50
2023-02-18T12:08:38.992Z,2.50
2023-02-18T12:11:16.860Z,1.52
2023-02-18T12:13:53.465Z,0.90
2023-02-18T12:16:44.486Z,0.75
2023-02-18T12:19:37.512Z,0.52
2023-02-18T12:22:26.488Z,0.35
2023-02-18T12:25:11.737Z,9.30
2023-02-18T12:27:53.909Z,1.10
2023-02-18T12:30:46.339Z,2.45
2023-02-18T12:33:15.753Z,0.63
2023-02-18T12:36:10.572Z,2.80
2023-02-18T12:38:55.886Z,3.20
2023-02-18T12:41:38.124Z,0.57
2023-02-18T12:44:30.112Z,0.40
2023-02-18T12:47:14.144Z,1.47
2023-02-18T12:49:59.604Z,0.50
2023-02-18T12:52:35.805Z,1.58
2023-02-18T12:55:36.908Z,1.75
2023-02-18T12:58:15.351Z,2.75
2023-02-18T13:01:00.674Z,0.40
2023-02-18T13:03:51.734Z,3.08
2023-02-18T13:06:38.458Z,0.95
2023-02-18T13:09:11.287Z,1.88
2023-02-18T13:12:03.784Z,0.40
2023-02-18T13:14:36.866Z,2.10
2023-02-18T13:17:06.085Z,2.92
2023-02-18T13:20:13.565Z,0.50
2023-02-18T13:22:40.618Z,1.45
2023-02-18T13:25:13.571Z,1.92
2023-02-18T13:28:14.054Z,0.77
2023-02-18T13:30:52.017Z,3.10
2023-02-18T13:33:52.982Z,0.57
2023-02-18T13:36:38.295Z,1.25
2023-02-18T13:39:11.396Z,0.70
2023-02-18T13:41:42.601Z,1.60
2023-02-18T13:44:30.442Z,1.13
2023-02-18T13:46:59.203Z,1.10
2023-02-18T13:49:38.287Z,2.47
2023-02-18T13:52:05.827Z,0.60
2023-02-18T13:54:41.898Z,0.95
2023-02-18T13:57:22.946Z,0.93
2023-02-18T13:59:51.168Z,1.33
2023-02-18T14:02:21.344Z,1.30
2023-02-18T14:05:09.251Z,2.28
2023-02-18T14:07:36.143Z,1.13
2023-02-18T14:10:24.120Z,2.75
2023-02-18T14:12:57.135Z,1.73
2023-02-18T14:15:23.968Z,0.70
2023-02-18T14:18:12.590Z,1.50
2023-02-18T14:20:39.290Z,2.10
2023-02-18T14:23:21.218Z,1.08
2023-02-18T14:26:13.761Z,1.17
2023-02-18T14:28:47.429Z,0.55
2023-02-18T14:31:22.097Z,1.02
2023-02-18T14:34:22.744Z,2.05
2023-02-18T14:37:06.532Z,0.80
2023-02-18T14:40:12.343Z,0.20
2023-02-18T14:43:24.369Z,0.30
2023-02-18T14:46:23.023Z,0.47
2023-02-18T14:49:14.220Z,0.20
2023-02-18T14:51:44.122Z,0.20
2023-02-18T14:54:16.085Z,0.45
2023-02-18T14:57:03.717Z,0.50
2023-02-18T14:59:35.456Z,0.47
2023-02-18T15:02:02.880Z,0.93
2023-02-18T15:04:29.894Z,1.85
2023-02-18T15:07:05.550Z,0.52
2023-02-18T15:09:32.478Z,0.65
2023-02-18T15:12:05.713Z,1.30
2023-02-18T15:14:36.861Z,0.82
2023-02-18T15:17:04.940Z,2.55
2023-02-18T15:19:42.601Z,0.55
2023-02-18T15:22:18.208Z,0.65
2023-02-18T15:24:45.426Z,1.38
2023-02-18T15:27:18.819Z,0.60
2023-02-18T15:29:51.216Z,0.30
2023-02-18T15:32:29.591Z,1.05
2023-02-18T15:35:02.452Z,0.93
2023-02-18T15:37:30.855Z,0.40
2023-02-18T15:39:57.899Z,2.97
2023-02-18T15:42:33.774Z,0.75
2023-02-18T15:45:21.588Z,0.90
2023-02-18T15:47:54.487Z,0.88
2023-02-18T15:50:22.605Z,0.40
2023-02-18T15:52:50.679Z,1.30
2023-02-18T15:55:41.509Z,1.25
2023-02-18T15:58:14.631Z,0.88
2023-02-18T16:01:02.960Z,0.55
2023-02-18T16:03:30.953Z,0.63
2023-02-18T16:06:24.476Z,1.50
2023-02-18T16:09:01.660Z,3.55
2023-02-18T16:11:38.193Z,4.88
2023-02-18T16:14:06.155Z,0.95
2023-02-18T16:16:35.625Z,1.65
2023-02-18T16:19:03.671Z,1.02
2023-02-18T16:21:40.549Z,0.47
2023-02-18T16:24:28.322Z,0.65
2023-02-18T16:26:58.666Z,0.68
2023-02-18T16:29:45.636Z,2.00
2023-02-18T16:32:12.799Z,1.05
2023-02-18T16:34:39.624Z,0.50
2023-02-18T16:37:25.052Z,2.70
2023-02-18T16:39:54.851Z,2.67
2023-02-18T16:42:21.981Z,2.65
2023-02-18T16:44:50.500Z,1.08
2023-02-18T16:47:19.290Z,0.65
2023-02-18T16:49:49.679Z,5.03
2023-02-18T16:52:18.527Z,2.03
2023-02-18T16:54:47.716Z,2.45
2023-02-18T16:57:14.666Z,2.83
2023-02-18T16:59:41.542Z,1.30
2023-02-18T17:02:18.001Z,2.08
2023-02-18T17:04:44.740Z,2.83
2023-02-18T17:07:11.653Z,1.88
2023-02-18T17:09:38.466Z,0.35
2023-02-18T17:12:05.428Z,0.47
2023-02-18T17:14:32.298Z,0.20
2023-02-18T17:16:59.273Z,0.45
2023-02-18T17:19:26.056Z,1.85
2023-02-18T17:21:52.737Z,0.30
2023-02-18T17:24:19.607Z,1.80
2023-02-18T17:26:46.625Z,1.88
2023-02-18T17:29:13.960Z,1.50
2023-02-18T17:31:44.549Z,0.70
2023-02-18T17:34:19.050Z,1.10
2023-02-18T17:36:45.828Z,0.63
2023-02-18T17:39:17.352Z,2.20
2023-02-18T17:41:44.709Z,0.93
2023-02-18T17:44:19.692Z,1.75
2023-02-18T17:46:46.838Z,1.42
2023-02-18T17:49:14.006Z,2.70
2023-02-18T17:51:40.918Z,7.18
2023-02-18T17:54:16.151Z,2.30
2023-02-18T17:56:42.859Z,5.00
2023-02-18T17:59:09.874Z,2.47
2023-02-18T18:01:37.156Z,0.77
2023-02-18T18:04:04.116Z,2.13
2023-02-18T18:06:32.381Z,1.65
2023-02-18T18:08:59.170Z,1.38
2023-02-18T18:11:26.164Z,1.40
2023-02-18T18:13:53.391Z,1.13
2023-02-18T18:16:21.130Z,2.28
2023-02-18T18:18:48.157Z,4.50
2023-02-18T18:21:35.694Z,1.13
2023-02-18T18:24:03.073Z,4.93
2023-02-18T18:26:30.392Z,1.40
2023-02-18T18:28:57.217Z,2.08
2023-02-18T18:31:24.361Z,3.65
2023-02-18T18:33:53.199Z,3.38
2023-02-18T18:36:21.405Z,4.03
2023-02-18T18:38:48.131Z,2.72
2023-02-18T18:41:17.543Z,7.45
2023-02-18T18:43:44.616Z,1.48
2023-02-18T18:46:11.485Z,1.70
2023-02-18T18:48:38.738Z,10.85
2023-02-18T18:51:06.287Z,1.80
2023-02-18T18:53:35.738Z,6.25
2023-02-18T18:56:05.502Z,1.63
2023-02-18T18:58:32.761Z,3.47
2023-02-18T19:01:02.348Z,0.77
2023-02-18T19:03:30.713Z,2.78
2023-02-18T19:05:57.958Z,4.30
2023-02-18T19:08:24.886Z,6.45
2023-02-18T19:10:53.921Z,5.00
2023-02-18T19:13:21.926Z,3.85
2023-02-18T19:15:50.253Z,3.42
2023-02-18T19:18:19.185Z,2.65
2023-02-18T19:20:47.393Z,3.90
2023-02-18T19:23:14.839Z,3.97
2023-02-18T19:25:41.702Z,4.40
2023-02-18T19:28:10.212Z,6.13
2023-02-18T19:30:37.616Z,4.57
2023-02-18T19:33:05.941Z,4.32
2023-02-18T19:35:33.299Z,5.90
2023-02-18T19:38:00.688Z,4.35
2023-02-18T19:40:30.409Z,9.25
2023-02-18T19:42:57.362Z,2.65
2023-02-18T19:45:24.600Z,3.95
2023-02-18T19:47:55.988Z,6.43
2023-02-18T19:50:24.091Z,4.68
2023-02-18T19:52:54.872Z,6.22
2023-02-18T19:55:22.476Z,7.50
2023-02-18T19:57:49.749Z,5.15
2023-02-18T20:00:18.069Z,6.97
2023-02-18T20:02:45.337Z,6.95
2023-02-18T20:05:13.313Z,3.72
2023-02-18T20:07:41.595Z,4.68
2023-02-18T20:10:11.865Z,5.10
2023-02-18T20:12:38.683Z,5.22
2023-02-18T20:15:06.298Z,6.03
2023-02-18T20:17:33.018Z,6.10
2023-02-18T20:19:59.869Z,4.57
2023-02-18T20:22:26.674Z,6.15
2023-02-18T20:24:53.426Z,9.80
2023-02-18T20:27:20.190Z,5.32
2023-02-18T20:29:46.884Z,8.85
2023-02-18T20:32:13.686Z,6.25
2023-02-18T20:34:40.416Z,6.82
2023-02-18T20:37:07.159Z,11.15
2023-02-18T20:39:33.856Z,11.30
2023-02-18T20:42:08.099Z,8.95
2023-02-18T20:44:41.411Z,8.88
2023-02-18T20:47:08.298Z,13.07
2023-02-18T20:49:35.538Z,5.60
2023-02-18T20:52:02.535Z,14.88
2023-02-18T20:54:29.447Z,9.93
2023-02-18T20:56:56.408Z,5.25
2023-02-18T20:59:23.231Z,7.88
2023-02-18T21:01:50.035Z,8.63
2023-02-18T21:04:18.844Z,15.27
2023-02-18T21:06:46.106Z,12.05
2023-02-18T21:09:14.731Z,11.45
2023-02-18T21:11:42.324Z,7.95
2023-02-18T21:14:09.399Z,7.63
2023-02-18T21:16:39.321Z,5.65
2023-02-18T21:19:13.306Z,6.65
2023-02-18T21:21:40.241Z,8.65
2023-02-18T21:24:07.067Z,6.55
2023-02-18T21:26:34.097Z,13.18
2023-02-18T21:29:03.106Z,5.82
2023-02-18T21:31:33.425Z,6.38
2023-02-18T21:34:00.222Z,10.02
2023-02-18T21:36:28.131Z,14.00
2023-02-18T21:38:57.186Z,9.20
2023-02-18T21:41:25.121Z,8.75
2023-02-18T21:43:52.432Z,7.82
2023-02-18T21:46:19.238Z,6.30
2023-02-18T21:49:05.064Z,12.20
2023-02-18T21:51:56.754Z,8.18
2023-02-18T21:54:30.376Z,10.38
2023-02-18T21:56:58.661Z,16.35
2023-02-18T21:59:27.482Z,9.80
2023-02-18T22:01:55.035Z,9.93
2023-02-18T22:04:22.090Z,11.65
2023-02-18T22:06:48.898Z,9.32
2023-02-18T22:09:15.656Z,5.30
2023-02-18T22:11:43.076Z,10.68
2023-02-18T22:14:11.302Z,6.32
2023-02-18T22:16:38.438Z,7.95
2023-02-18T22:19:05.736Z,16.30
2023-02-18T22:21:32.895Z,17.88
2023-02-18T22:23:59.697Z,13.13
2023-02-18T22:26:26.543Z,7.80
2023-02-18T22:28:55.635Z,17.52
2023-02-18T22:31:24.190Z,11.63
2023-02-18T22:33:55.393Z,10.35
2023-02-18T22:36:23.634Z,6.68
2023-02-18T22:38:51.334Z,6.10
2023-02-18T22:41:20.620Z,12.07
2023-02-18T22:43:47.476Z,7.47
2023-02-18T22:46:17.323Z,15.27
2023-02-18T22:48:44.142Z,11.23
2023-02-18T22:51:16.483Z,10.05
2023-02-18T22:53:44.262Z,11.38
2023-02-18T22:56:14.107Z,10.75
2023-02-18T22:58:42.542Z,14.25
2023-02-18T23:01:19.418Z,10.98
2023-02-18T23:03:46.131Z,8.57
2023-02-18T23:06:13.004Z,21.58
2023-02-18T23:08:39.743Z,10.02
2023-02-18T23:11:09.529Z,10.93
2023-02-18T23:13:36.837Z,9.68
2023-02-18T23:16:06.979Z,13.15
2023-02-18T23:18:35.488Z,8.80
2023-02-18T23:21:17.506Z,11.07
2023-02-18T23:24:02.351Z,13.18
2023-02-18T23:26:29.081Z,9.75
2023-02-18T23:28:55.804Z,6.82
2023-02-18T23:31:27.198Z,5.43
2023-02-18T23:33:56.548Z,15.15
2023-02-18T23:36:26.236Z,13.30
2023-02-18T23:38:55.554Z,22.73
2023-02-18T23:41:22.733Z,9.00
2023-02-18T23:43:50.096Z,8.70
2023-02-18T23:46:19.597Z,11.38
2023-02-18T23:48:47.011Z,16.58
2023-02-18T23:51:16.727Z,11.43
2023-02-18T23:53:44.152Z,19.25
2023-02-18T23:56:18.620Z,11.50
2023-02-18T23:58:52.096Z,5.65
